sensor_id;sensor_type;location;lat;lon;timestamp;P1;durP1;ratioP1;P2;durP2;ratioP2
61397;SDS011;47267;48.130;-2.040;2023-08-24T00:00:53;7.03;;;2.22;;
61397;SDS011;47267;48.130;-2.040;2023-08-24T00:03:18;4.40;;;2.20;;
61397;SDS011;47267;48.130;-2.040;2023-08-24T00:05:47;4.78;;;2.17;;
61397;SDS011;47267;48.130;-2.040;2023-08-24T00:08:12;7.38;;;3.08;;
61397;SDS011;47267;48.130;-2.040;2023-08-24T00:10:38;4.18;;;2.20;;
61397;SDS011;47267;48.130;-2.040;2023-08-24T00:13:04;4.40;;;2.20;;
61397;SDS011;47267;48.130;-2.040;2023-08-24T00:15:30;5.20;;;2.40;;
61397;SDS011;47267;48.130;-2.040;2023-08-24T00:17:56;4.13;;;2.20;;
61397;SDS011;47267;48.130;-2.040;2023-08-24T00:20:22;5.10;;;2.13;;
61397;SDS011;47267;48.130;-2.040;2023-08-24T00:22:48;4.55;;;2.00;;
61397;SDS011;47267;48.130;-2.040;2023-08-24T00:25:14;6.18;;;2.10;;
61397;SDS011;47267;48.130;-2.040;2023-08-24T00:27:40;5.10;;;2.33;;
61397;SDS011;47267;48.130;-2.040;2023-08-24T00:30:06;5.05;;;2.28;;
61397;SDS011;47267;48.130;-2.040;2023-08-24T00:32:33;8.02;;;2.38;;
61397;SDS011;47267;48.130;-2.040;2023-08-24T00:35:03;4.40;;;2.22;;
61397;SDS011;47267;48.130;-2.040;2023-08-24T00:37:33;5.60;;;2.30;;
61397;SDS011;47267;48.130;-2.040;2023-08-24T00:39:59;4.78;;;2.60;;
61397;SDS011;47267;48.130;-2.040;2023-08-24T00:42:28;4.78;;;2.22;;
61397;SDS011;47267;48.130;-2.040;2023-08-24T00:44:54;6.68;;;2.35;;
61397;SDS011;47267;48.130;-2.040;2023-08-24T00:47:20;5.03;;;2.20;;
61397;SDS011;47267;48.130;-2.040;2023-08-24T00:49:46;3.90;;;2.58;;
61397;SDS011;47267;48.130;-2.040;2023-08-24T00:52:12;4.60;;;2.20;;
61397;SDS011;47267;48.130;-2.040;2023-08-24T00:54:38;4.40;;;2.13;;
61397;SDS011;47267;48.130;-2.040;2023-08-24T00:57:05;5.65;;;2.50;;
61397;SDS011;47267;48.130;-2.040;2023-08-24T00:59:32;5.18;;;2.25;;
61397;SDS011;47267;48.130;-2.040;2023-08-24T01:01:59;4.78;;;2.42;;
61397;SDS011;47267;48.130;-2.040;2023-08-24T01:04:25;4.45;;;2.05;;
61397;SDS011;47267;48.130;-2.040;2023-08-24T01:06:51;4.28;;;2.50;;
61397;SDS011;47267;48.130;-2.040;2023-08-24T01:09:17;6.32;;;2.25;;
61397;SDS011;47267;48.130;-2.040;2023-08-24T01:17:15;6.85;;;2.42;;
61397;SDS011;47267;48.130;-2.040;2023-08-24T01:19:47;4.80;;;2.10;;
61397;SDS011;47267;48.130;-2.040;2023-08-24T01:22:23;4.22;;;2.22;;
61397;SDS011;47267;48.130;-2.040;2023-08-24T01:25:06;3.97;;;2.10;;
61397;SDS011;47267;48.130;-2.040;2023-08-24T01:27:38;3.30;;;1.90;;
61397;SDS011;47267;48.130;-2.040;2023-08-24T01:30:06;3.08;;;2.08;;
61397;SDS011;47267;48.130;-2.040;2023-08-24T01:32:33;3.03;;;2.03;;
61397;SDS011;47267;48.130;-2.040;2023-08-24T01:35:00;3.33;;;1.83;;
61397;SDS011;47267;48.130;-2.040;2023-08-24T01:37:28;4.25;;;2.20;;
61397;SDS011;47267;48.130;-2.040;2023-08-24T01:39:56;3.53;;;2.00;;
61397;SDS011;47267;48.130;-2.040;2023-08-24T01:42:30;3.65;;;2.05;;
61397;SDS011;47267;48.130;-2.040;2023-08-24T01:44:58;2.85;;;2.00;;
61397;SDS011;47267;48.130;-2.040;2023-08-24T01:47:27;3.75;;;2.10;;
61397;SDS011;47267;48.130;-2.040;2023-08-24T01:49:55;3.42;;;1.95;;
61397;SDS011;47267;48.130;-2.040;2023-08-24T01:52:21;3.00;;;1.90;;
61397;SDS011;47267;48.130;-2.040;2023-08-24T01:54:47;4.28;;;1.90;;
61397;SDS011;47267;48.130;-2.040;2023-08-24T01:57:13;4.00;;;1.83;;
61397;SDS011;47267;48.130;-2.040;2023-08-24T01:59:39;5.43;;;2.25;;
61397;SDS011;47267;48.130;-2.040;2023-08-24T02:02:05;2.83;;;1.80;;
61397;SDS011;47267;48.130;-2.040;2023-08-24T02:04:31;3.45;;;1.83;;
61397;SDS011;47267;48.130;-2.040;2023-08-24T02:06:56;4.22;;;2.30;;
61397;SDS011;47267;48.130;-2.040;2023-08-24T02:09:22;2.92;;;1.88;;
61397;SDS011;47267;48.130;-2.040;2023-08-24T02:11:48;2.70;;;1.92;;
61397;SDS011;47267;48.130;-2.040;2023-08-24T02:14:13;3.35;;;2.22;;
61397;SDS011;47267;48.130;-2.040;2023-08-24T02:16:39;4.93;;;2.03;;
61397;SDS011;47267;48.130;-2.040;2023-08-24T02:19:05;6.20;;;2.17;;
61397;SDS011;47267;48.130;-2.040;2023-08-24T02:21:30;4.57;;;2.28;;
61397;SDS011;47267;48.130;-2.040;2023-08-24T02:23:56;3.95;;;2.08;;
61397;SDS011;47267;48.130;-2.040;2023-08-24T02:26:21;4.43;;;2.00;;
61397;SDS011;47267;48.130;-2.040;2023-08-24T02:28:47;3.33;;;1.80;;
61397;SDS011;47267;48.130;-2.040;2023-08-24T02:31:13;3.70;;;2.10;;
61397;SDS011;47267;48.130;-2.040;2023-08-24T02:33:38;4.63;;;1.77;;
61397;SDS011;47267;48.130;-2.040;2023-08-24T02:36:04;4.13;;;1.95;;
61397;SDS011;47267;48.130;-2.040;2023-08-24T02:38:30;5.35;;;2.28;;
61397;SDS011;47267;48.130;-2.040;2023-08-24T02:41:05;5.50;;;2.13;;
61397;SDS011;47267;48.130;-2.040;2023-08-24T02:43:32;3.92;;;1.90;;
61397;SDS011;47267;48.130;-2.040;2023-08-24T02:46:08;2.83;;;1.73;;
61397;SDS011;47267;48.130;-2.040;2023-08-24T02:48:35;4.88;;;2.00;;
61397;SDS011;47267;48.130;-2.040;2023-08-24T02:51:01;2.33;;;1.77;;
61397;SDS011;47267;48.130;-2.040;2023-08-24T02:53:28;3.60;;;1.90;;
61397;SDS011;47267;48.130;-2.040;2023-08-24T02:55:54;4.63;;;2.10;;
61397;SDS011;47267;48.130;-2.040;2023-08-24T02:58:20;4.18;;;2.60;;
61397;SDS011;47267;48.130;-2.040;2023-08-24T03:00:46;4.82;;;2.20;;
61397;SDS011;47267;48.130;-2.040;2023-08-24T03:03:15;3.17;;;2.13;;
61397;SDS011;47267;48.130;-2.040;2023-08-24T03:05:51;4.35;;;2.30;;
61397;SDS011;47267;48.130;-2.040;2023-08-24T03:08:26;3.38;;;2.10;;
61397;SDS011;47267;48.130;-2.040;2023-08-24T03:10:53;3.65;;;1.83;;
61397;SDS011;47267;48.130;-2.040;2023-08-24T03:13:19;5.68;;;2.10;;
61397;SDS011;47267;48.130;-2.040;2023-08-24T03:15:44;4.18;;;2.08;;
61397;SDS011;47267;48.130;-2.040;2023-08-24T03:18:13;7.07;;;2.22;;
61397;SDS011;47267;48.130;-2.040;2023-08-24T03:20:40;2.72;;;1.60;;
61397;SDS011;47267;48.130;-2.040;2023-08-24T03:23:06;5.45;;;2.10;;
61397;SDS011;47267;48.130;-2.040;2023-08-24T03:25:36;3.42;;;1.85;;
61397;SDS011;47267;48.130;-2.040;2023-08-24T03:28:03;3.38;;;1.80;;
61397;SDS011;47267;48.130;-2.040;2023-08-24T03:30:29;3.97;;;1.75;;
61397;SDS011;47267;48.130;-2.040;2023-08-24T03:32:55;2.92;;;1.83;;
61397;SDS011;47267;48.130;-2.040;2023-08-24T03:35:20;3.67;;;2.00;;
61397;SDS011;47267;48.130;-2.040;2023-08-24T03:37:46;4.07;;;1.98;;
61397;SDS011;47267;48.130;-2.040;2023-08-24T03:40:12;3.63;;;2.00;;
61397;SDS011;47267;48.130;-2.040;2023-08-24T03:42:38;4.47;;;1.90;;
61397;SDS011;47267;48.130;-2.040;2023-08-24T03:45:04;4.35;;;2.03;;
61397;SDS011;47267;48.130;-2.040;2023-08-24T03:47:31;3.47;;;2.03;;
61397;SDS011;47267;48.130;-2.040;2023-08-24T03:49:56;4.07;;;1.85;;
61397;SDS011;47267;48.130;-2.040;2023-08-24T03:52:22;4.82;;;1.52;;
61397;SDS011;47267;48.130;-2.040;2023-08-24T03:54:48;2.80;;;1.73;;
61397;SDS011;47267;48.130;-2.040;2023-08-24T03:57:14;4.03;;;2.08;;
61397;SDS011;47267;48.130;-2.040;2023-08-24T03:59:40;5.07;;;2.25;;
61397;SDS011;47267;48.130;-2.040;2023-08-24T04:02:06;3.80;;;1.90;;
61397;SDS011;47267;48.130;-2.040;2023-08-24T04:04:32;3.53;;;1.98;;
61397;SDS011;47267;48.130;-2.040;2023-08-24T04:06:58;4.93;;;2.08;;
61397;SDS011;47267;48.130;-2.040;2023-08-24T04:09:23;4.47;;;2.20;;
61397;SDS011;47267;48.130;-2.040;2023-08-24T04:11:49;5.28;;;2.45;;
61397;SDS011;47267;48.130;-2.040;2023-08-24T04:14:15;4.55;;;2.00;;
61397;SDS011;47267;48.130;-2.040;2023-08-24T04:16:40;4.35;;;2.08;;
61397;SDS011;47267;48.130;-2.040;2023-08-24T04:19:07;4.57;;;1.92;;
61397;SDS011;47267;48.130;-2.040;2023-08-24T04:21:33;3.17;;;1.60;;
61397;SDS011;47267;48.130;-2.040;2023-08-24T04:23:59;2.55;;;1.58;;
61397;SDS011;47267;48.130;-2.040;2023-08-24T04:26:24;3.75;;;2.10;;
61397;SDS011;47267;48.130;-2.040;2023-08-24T04:28:50;4.45;;;1.92;;
61397;SDS011;47267;48.130;-2.040;2023-08-24T04:31:16;3.63;;;1.95;;
61397;SDS011;47267;48.130;-2.040;2023-08-24T04:33:41;3.78;;;1.90;;
61397;SDS011;47267;48.130;-2.040;2023-08-24T04:36:07;5.25;;;2.40;;
61397;SDS011;47267;48.130;-2.040;2023-08-24T04:38:33;4.22;;;1.70;;
61397;SDS011;47267;48.130;-2.040;2023-08-24T04:40:59;3.05;;;1.88;;
61397;SDS011;47267;48.130;-2.040;2023-08-24T04:43:25;3.60;;;1.45;;
61397;SDS011;47267;48.130;-2.040;2023-08-24T04:45:54;3.90;;;1.67;;
61397;SDS011;47267;48.130;-2.040;2023-08-24T04:48:20;3.08;;;1.67;;
61397;SDS011;47267;48.130;-2.040;2023-08-24T04:50:47;3.03;;;1.70;;
61397;SDS011;47267;48.130;-2.040;2023-08-24T04:53:15;3.50;;;1.90;;
61397;SDS011;47267;48.130;-2.040;2023-08-24T04:55:42;4.03;;;2.00;;
61397;SDS011;47267;48.130;-2.040;2023-08-24T04:58:08;3.15;;;1.70;;
61397;SDS011;47267;48.130;-2.040;2023-08-24T05:00:35;3.70;;;1.88;;
61397;SDS011;47267;48.130;-2.040;2023-08-24T05:03:02;5.10;;;2.40;;
61397;SDS011;47267;48.130;-2.040;2023-08-24T05:05:32;4.35;;;2.03;;
61397;SDS011;47267;48.130;-2.040;2023-08-24T05:07:59;4.35;;;1.85;;
61397;SDS011;47267;48.130;-2.040;2023-08-24T05:10:25;5.28;;;2.00;;
61397;SDS011;47267;48.130;-2.040;2023-08-24T05:12:51;4.07;;;1.80;;
61397;SDS011;47267;48.130;-2.040;2023-08-24T05:15:17;3.35;;;1.70;;
61397;SDS011;47267;48.130;-2.040;2023-08-24T05:17:42;6.38;;;2.08;;
61397;SDS011;47267;48.130;-2.040;2023-08-24T05:20:08;4.78;;;1.92;;
61397;SDS011;47267;48.130;-2.040;2023-08-24T05:22:35;4.18;;;2.00;;
61397;SDS011;47267;48.130;-2.040;2023-08-24T05:25:02;5.57;;;2.05;;
61397;SDS011;47267;48.130;-2.040;2023-08-24T05:27:28;4.40;;;2.00;;
61397;SDS011;47267;48.130;-2.040;2023-08-24T05:29:53;5.18;;;2.22;;
61397;SDS011;47267;48.130;-2.040;2023-08-24T05:32:19;4.97;;;1.83;;
61397;SDS011;47267;48.130;-2.040;2023-08-24T05:34:45;6.82;;;2.20;;
61397;SDS011;47267;48.130;-2.040;2023-08-24T05:37:11;4.00;;;2.08;;
61397;SDS011;47267;48.130;-2.040;2023-08-24T05:39:37;9.43;;;2.47;;
61397;SDS011;47267;48.130;-2.040;2023-08-24T05:42:03;4.95;;;2.15;;
61397;SDS011;47267;48.130;-2.040;2023-08-24T05:44:29;6.63;;;2.28;;
61397;SDS011;47267;48.130;-2.040;2023-08-24T05:46:55;5.40;;;2.33;;
61397;SDS011;47267;48.130;-2.040;2023-08-24T05:49:20;6.20;;;2.50;;
61397;SDS011;47267;48.130;-2.040;2023-08-24T05:51:46;4.75;;;2.15;;
61397;SDS011;47267;48.130;-2.040;2023-08-24T05:54:15;6.25;;;2.20;;
61397;SDS011;47267;48.130;-2.040;2023-08-24T05:56:43;5.50;;;2.30;;
61397;SDS011;47267;48.130;-2.040;2023-08-24T05:59:11;4.68;;;2.00;;
61397;SDS011;47267;48.130;-2.040;2023-08-24T06:01:38;5.68;;;2.30;;
61397;SDS011;47267;48.130;-2.040;2023-08-24T06:04:10;5.82;;;2.47;;
61397;SDS011;47267;48.130;-2.040;2023-08-24T06:06:36;6.55;;;2.53;;
61397;SDS011;47267;48.130;-2.040;2023-08-24T06:09:02;5.55;;;2.08;;
61397;SDS011;47267;48.130;-2.040;2023-08-24T06:11:32;6.50;;;2.38;;
61397;SDS011;47267;48.130;-2.040;2023-08-24T06:13:58;4.80;;;2.42;;
61397;SDS011;47267;48.130;-2.040;2023-08-24T06:16:24;5.80;;;2.30;;
61397;SDS011;47267;48.130;-2.040;2023-08-24T06:18:49;4.07;;;2.25;;
61397;SDS011;47267;48.130;-2.040;2023-08-24T06:21:15;5.03;;;2.42;;
61397;SDS011;47267;48.130;-2.040;2023-08-24T06:23:41;4.80;;;2.30;;
61397;SDS011;47267;48.130;-2.040;2023-08-24T06:26:07;6.47;;;2.30;;
61397;SDS011;47267;48.130;-2.040;2023-08-24T06:28:33;6.50;;;2.22;;
61397;SDS011;47267;48.130;-2.040;2023-08-24T06:30:59;6.97;;;2.22;;
61397;SDS011;47267;48.130;-2.040;2023-08-24T06:33:29;5.32;;;2.25;;
61397;SDS011;47267;48.130;-2.040;2023-08-24T06:35:58;3.97;;;2.60;;
61397;SDS011;47267;48.130;-2.040;2023-08-24T06:38:25;6.05;;;2.50;;
61397;SDS011;47267;48.130;-2.040;2023-08-24T06:40:51;4.35;;;2.40;;
61397;SDS011;47267;48.130;-2.040;2023-08-24T06:43:17;5.50;;;2.30;;
61397;SDS011;47267;48.130;-2.040;2023-08-24T06:45:43;6.15;;;2.42;;
61397;SDS011;47267;48.130;-2.040;2023-08-24T06:48:09;5.63;;;2.33;;
61397;SDS011;47267;48.130;-2.040;2023-08-24T06:50:35;6.65;;;2.58;;
61397;SDS011;47267;48.130;-2.040;2023-08-24T06:53:02;6.00;;;2.63;;
61397;SDS011;47267;48.130;-2.040;2023-08-24T06:55:28;6.93;;;2.45;;
61397;SDS011;47267;48.130;-2.040;2023-08-24T06:57:54;4.55;;;2.30;;
61397;SDS011;47267;48.130;-2.040;2023-08-24T07:00:20;5.13;;;2.22;;
61397;SDS011;47267;48.130;-2.040;2023-08-24T07:02:46;5.00;;;2.22;;
61397;SDS011;47267;48.130;-2.040;2023-08-24T07:05:13;4.43;;;2.15;;
61397;SDS011;47267;48.130;-2.040;2023-08-24T07:07:39;5.43;;;2.10;;
61397;SDS011;47267;48.130;-2.040;2023-08-24T07:10:08;7.03;;;2.70;;
61397;SDS011;47267;48.130;-2.040;2023-08-24T07:12:34;7.97;;;2.60;;
61397;SDS011;47267;48.130;-2.040;2023-08-24T07:15:00;6.28;;;2.47;;
61397;SDS011;47267;48.130;-2.040;2023-08-24T07:17:25;7.07;;;2.80;;
61397;SDS011;47267;48.130;-2.040;2023-08-24T07:19:51;5.13;;;2.20;;
61397;SDS011;47267;48.130;-2.040;2023-08-24T07:22:17;6.78;;;2.10;;
61397;SDS011;47267;48.130;-2.040;2023-08-24T07:24:43;5.35;;;2.33;;
61397;SDS011;47267;48.130;-2.040;2023-08-24T07:27:08;5.05;;;2.20;;
61397;SDS011;47267;48.130;-2.040;2023-08-24T07:29:34;7.10;;;2.33;;
61397;SDS011;47267;48.130;-2.040;2023-08-24T07:32:00;6.63;;;2.60;;
61397;SDS011;47267;48.130;-2.040;2023-08-24T07:34:26;5.68;;;2.15;;
61397;SDS011;47267;48.130;-2.040;2023-08-24T07:36:53;5.82;;;2.42;;
61397;SDS011;47267;48.130;-2.040;2023-08-24T07:39:19;6.00;;;2.25;;
61397;SDS011;47267;48.130;-2.040;2023-08-24T07:41:45;5.22;;;2.13;;
61397;SDS011;47267;48.130;-2.040;2023-08-24T07:44:11;5.88;;;2.45;;
61397;SDS011;47267;48.130;-2.040;2023-08-24T07:46:38;9.52;;;2.47;;
61397;SDS011;47267;48.130;-2.040;2023-08-24T07:49:05;4.75;;;2.20;;
61397;SDS011;47267;48.130;-2.040;2023-08-24T07:51:32;6.25;;;2.45;;
61397;SDS011;47267;48.130;-2.040;2023-08-24T07:53:58;4.05;;;2.20;;
61397;SDS011;47267;48.130;-2.040;2023-08-24T07:56:24;4.22;;;2.15;;
61397;SDS011;47267;48.130;-2.040;2023-08-24T07:58:50;12.18;;;2.20;;
61397;SDS011;47267;48.130;-2.040;2023-08-24T08:01:16;4.28;;;2.17;;
61397;SDS011;47267;48.130;-2.040;2023-08-24T08:03:41;6.57;;;2.72;;
61397;SDS011;47267;48.130;-2.040;2023-08-24T08:06:07;4.03;;;1.92;;
61397;SDS011;47267;48.130;-2.040;2023-08-24T08:08:33;7.25;;;2.30;;
61397;SDS011;47267;48.130;-2.040;2023-08-24T08:10:59;4.78;;;2.05;;
61397;SDS011;47267;48.130;-2.040;2023-08-24T08:13:26;4.18;;;2.08;;
61397;SDS011;47267;48.130;-2.040;2023-08-24T08:15:53;6.88;;;2.75;;
61397;SDS011;47267;48.130;-2.040;2023-08-24T08:18:19;5.72;;;2.25;;
61397;SDS011;47267;48.130;-2.040;2023-08-24T08:20:45;4.85;;;2.38;;
61397;SDS011;47267;48.130;-2.040;2023-08-24T08:23:15;7.30;;;2.45;;
61397;SDS011;47267;48.130;-2.040;2023-08-24T08:25:41;4.60;;;2.45;;
61397;SDS011;47267;48.130;-2.040;2023-08-24T08:28:07;4.78;;;2.25;;
61397;SDS011;47267;48.130;-2.040;2023-08-24T08:30:33;4.68;;;2.28;;
61397;SDS011;47267;48.130;-2.040;2023-08-24T08:32:58;6.30;;;2.40;;
61397;SDS011;47267;48.130;-2.040;2023-08-24T08:35:24;6.57;;;2.75;;
61397;SDS011;47267;48.130;-2.040;2023-08-24T08:37:50;6.78;;;2.70;;
61397;SDS011;47267;48.130;-2.040;2023-08-24T08:40:20;5.07;;;2.55;;
61397;SDS011;47267;48.130;-2.040;2023-08-24T08:42:45;5.82;;;2.60;;
61397;SDS011;47267;48.130;-2.040;2023-08-24T08:45:11;6.13;;;2.83;;
61397;SDS011;47267;48.130;-2.040;2023-08-24T08:47:37;5.30;;;2.10;;
61397;SDS011;47267;48.130;-2.040;2023-08-24T08:50:06;6.22;;;2.53;;
61397;SDS011;47267;48.130;-2.040;2023-08-24T08:52:32;3.47;;;2.17;;
61397;SDS011;47267;48.130;-2.040;2023-08-24T08:54:59;4.30;;;2.58;;
61397;SDS011;47267;48.130;-2.040;2023-08-24T08:57:25;7.07;;;2.08;;
61397;SDS011;47267;48.130;-2.040;2023-08-24T08:59:51;5.50;;;2.40;;
61397;SDS011;47267;48.130;-2.040;2023-08-24T09:02:18;5.78;;;2.50;;
61397;SDS011;47267;48.130;-2.040;2023-08-24T09:04:45;4.47;;;2.13;;
61397;SDS011;47267;48.130;-2.040;2023-08-24T09:07:13;6.28;;;2.15;;
61397;SDS011;47267;48.130;-2.040;2023-08-24T09:09:39;6.88;;;2.42;;
61397;SDS011;47267;48.130;-2.040;2023-08-24T09:12:05;5.00;;;2.10;;
61397;SDS011;47267;48.130;-2.040;2023-08-24T09:14:32;4.95;;;2.40;;
61397;SDS011;47267;48.130;-2.040;2023-08-24T09:16:58;5.28;;;2.00;;
61397;SDS011;47267;48.130;-2.040;2023-08-24T09:19:30;4.45;;;2.38;;
61397;SDS011;47267;48.130;-2.040;2023-08-24T09:22:01;6.43;;;2.13;;
61397;SDS011;47267;48.130;-2.040;2023-08-24T09:24:34;4.35;;;2.20;;
61397;SDS011;47267;48.130;-2.040;2023-08-24T09:27:22;4.00;;;2.10;;
61397;SDS011;47267;48.130;-2.040;2023-08-24T09:29:50;3.03;;;2.13;;
61397;SDS011;47267;48.130;-2.040;2023-08-24T09:32:32;3.58;;;1.90;;
61397;SDS011;47267;48.130;-2.040;2023-08-24T09:35:07;4.82;;;2.78;;
61397;SDS011;47267;48.130;-2.040;2023-08-24T09:37:36;3.33;;;2.28;;
61397;SDS011;47267;48.130;-2.040;2023-08-24T09:40:03;4.38;;;2.03;;
61397;SDS011;47267;48.130;-2.040;2023-08-24T09:45:08;6.10;;;2.90;;
61397;SDS011;47267;48.130;-2.040;2023-08-24T09:47:37;8.02;;;3.22;;
61397;SDS011;47267;48.130;-2.040;2023-08-24T09:50:03;5.22;;;3.75;;
61397;SDS011;47267;48.130;-2.040;2023-08-24T09:52:33;5.53;;;2.75;;
61397;SDS011;47267;48.130;-2.040;2023-08-24T09:55:03;6.30;;;2.80;;
61397;SDS011;47267;48.130;-2.040;2023-08-24T09:57:37;4.53;;;2.75;;
61397;SDS011;47267;48.130;-2.040;2023-08-24T10:00:05;4.75;;;2.80;;
61397;SDS011;47267;48.130;-2.040;2023-08-24T10:02:47;5.35;;;2.72;;
61397;SDS011;47267;48.130;-2.040;2023-08-24T10:05:16;5.88;;;2.45;;
61397;SDS011;47267;48.130;-2.040;2023-08-24T10:07:47;4.60;;;2.38;;
61397;SDS011;47267;48.130;-2.040;2023-08-24T10:10:18;6.15;;;2.72;;
61397;SDS011;47267;48.130;-2.040;2023-08-24T10:12:47;5.07;;;2.58;;
61397;SDS011;47267;48.130;-2.040;2023-08-24T10:15:16;7.32;;;3.08;;
61397;SDS011;47267;48.130;-2.040;2023-08-24T10:17:43;4.47;;;2.53;;
61397;SDS011;47267;48.130;-2.040;2023-08-24T10:20:10;4.82;;;2.60;;
61397;SDS011;47267;48.130;-2.040;2023-08-24T10:22:37;7.38;;;2.80;;
61397;SDS011;47267;48.130;-2.040;2023-08-24T10:25:06;4.90;;;2.63;;
61397;SDS011;47267;48.130;-2.040;2023-08-24T10:27:34;4.30;;;2.55;;
61397;SDS011;47267;48.130;-2.040;2023-08-24T10:30:01;5.18;;;2.70;;
61397;SDS011;47267;48.130;-2.040;2023-08-24T10:32:27;5.70;;;2.38;;
61397;SDS011;47267;48.130;-2.040;2023-08-24T10:34:53;5.32;;;2.70;;
61397;SDS011;47267;48.130;-2.040;2023-08-24T10:37:24;5.05;;;2.85;;
61397;SDS011;47267;48.130;-2.040;2023-08-24T10:39:51;5.28;;;2.88;;
61397;SDS011;47267;48.130;-2.040;2023-08-24T10:42:17;4.35;;;2.58;;
61397;SDS011;47267;48.130;-2.040;2023-08-24T10:44:46;6.05;;;2.97;;
61397;SDS011;47267;48.130;-2.040;2023-08-24T10:49:42;5.53;;;2.88;;
61397;SDS011;47267;48.130;-2.040;2023-08-24T10:52:23;4.28;;;2.45;;
61397;SDS011;47267;48.130;-2.040;2023-08-24T10:54:50;5.72;;;2.65;;
61397;SDS011;47267;48.130;-2.040;2023-08-24T10:57:21;4.15;;;2.97;;
61397;SDS011;47267;48.130;-2.040;2023-08-24T11:02:48;4.28;;;2.60;;
61397;SDS011;47267;48.130;-2.040;2023-08-24T11:07:48;4.82;;;2.67;;
61397;SDS011;47267;48.130;-2.040;2023-08-24T11:10:15;7.38;;;2.72;;
61397;SDS011;47267;48.130;-2.040;2023-08-24T11:15:47;4.25;;;2.75;;
61397;SDS011;47267;48.130;-2.040;2023-08-24T11:18:23;3.50;;;2.70;;
61397;SDS011;47267;48.130;-2.040;2023-08-24T11:20:52;3.42;;;2.80;;
61397;SDS011;47267;48.130;-2.040;2023-08-24T11:23:24;4.57;;;3.05;;
61397;SDS011;47267;48.130;-2.040;2023-08-24T11:25:51;5.70;;;3.20;;
61397;SDS011;47267;48.130;-2.040;2023-08-24T11:28:21;5.45;;;2.88;;
61397;SDS011;47267;48.130;-2.040;2023-08-24T11:30:48;4.93;;;2.80;;
61397;SDS011;47267;48.130;-2.040;2023-08-24T11:33:15;9.38;;;3.90;;
61397;SDS011;47267;48.130;-2.040;2023-08-24T11:35:43;4.93;;;3.25;;
61397;SDS011;47267;48.130;-2.040;2023-08-24T11:38:10;6.00;;;3.40;;
61397;SDS011;47267;48.130;-2.040;2023-08-24T11:40:36;5.20;;;3.28;;
61397;SDS011;47267;48.130;-2.040;2023-08-24T11:43:02;5.45;;;3.15;;
61397;SDS011;47267;48.130;-2.040;2023-08-24T11:45:32;5.50;;;3.05;;
61397;SDS011;47267;48.130;-2.040;2023-08-24T11:48:00;6.65;;;3.70;;
61397;SDS011;47267;48.130;-2.040;2023-08-24T11:50:27;3.72;;;2.75;;
61397;SDS011;47267;48.130;-2.040;2023-08-24T11:52:53;7.50;;;3.55;;
61397;SDS011;47267;48.130;-2.040;2023-08-24T11:55:20;5.38;;;3.45;;
61397;SDS011;47267;48.130;-2.040;2023-08-24T11:57:46;6.40;;;2.90;;
61397;SDS011;47267;48.130;-2.040;2023-08-24T12:00:12;6.38;;;2.88;;
61397;SDS011;47267;48.130;-2.040;2023-08-24T12:02:40;4.65;;;3.17;;
61397;SDS011;47267;48.130;-2.040;2023-08-24T12:05:06;7.47;;;3.63;;
61397;SDS011;47267;48.130;-2.040;2023-08-24T12:07:32;4.68;;;3.42;;
61397;SDS011;47267;48.130;-2.040;2023-08-24T12:10:01;6.13;;;3.42;;
61397;SDS011;47267;48.130;-2.040;2023-08-24T12:12:27;4.72;;;3.03;;
61397;SDS011;47267;48.130;-2.040;2023-08-24T12:14:54;6.95;;;3.30;;
61397;SDS011;47267;48.130;-2.040;2023-08-24T12:17:22;5.13;;;2.70;;
61397;SDS011;47267;48.130;-2.040;2023-08-24T12:19:58;3.97;;;2.83;;
61397;SDS011;47267;48.130;-2.040;2023-08-24T12:22:25;5.68;;;3.35;;
61397;SDS011;47267;48.130;-2.040;2023-08-24T12:24:51;7.15;;;3.10;;
61397;SDS011;47267;48.130;-2.040;2023-08-24T12:27:17;9.32;;;3.13;;
61397;SDS011;47267;48.130;-2.040;2023-08-24T12:29:45;5.43;;;3.03;;
61397;SDS011;47267;48.130;-2.040;2023-08-24T12:32:11;4.32;;;3.05;;
61397;SDS011;47267;48.130;-2.040;2023-08-24T12:34:37;4.22;;;2.80;;
61397;SDS011;47267;48.130;-2.040;2023-08-24T12:37:03;4.07;;;2.92;;
61397;SDS011;47267;48.130;-2.040;2023-08-24T12:39:32;6.47;;;2.90;;
61397;SDS011;47267;48.130;-2.040;2023-08-24T12:42:01;4.88;;;2.88;;
61397;SDS011;47267;48.130;-2.040;2023-08-24T12:44:26;5.85;;;2.75;;
61397;SDS011;47267;48.130;-2.040;2023-08-24T12:46:52;4.85;;;2.63;;
61397;SDS011;47267;48.130;-2.040;2023-08-24T12:49:18;5.30;;;3.10;;
61397;SDS011;47267;48.130;-2.040;2023-08-24T12:51:43;6.03;;;3.00;;
61397;SDS011;47267;48.130;-2.040;2023-08-24T12:54:09;4.10;;;2.90;;
61397;SDS011;47267;48.130;-2.040;2023-08-24T12:56:35;6.82;;;2.85;;
61397;SDS011;47267;48.130;-2.040;2023-08-24T12:59:00;4.38;;;2.83;;
61397;SDS011;47267;48.130;-2.040;2023-08-24T13:01:26;5.43;;;2.88;;
61397;SDS011;47267;48.130;-2.040;2023-08-24T13:03:52;3.20;;;2.75;;
61397;SDS011;47267;48.130;-2.040;2023-08-24T13:06:18;4.72;;;2.60;;
61397;SDS011;47267;48.130;-2.040;2023-08-24T13:08:43;5.65;;;2.63;;
61397;SDS011;47267;48.130;-2.040;2023-08-24T13:11:09;4.28;;;2.70;;
61397;SDS011;47267;48.130;-2.040;2023-08-24T13:13:36;3.40;;;2.58;;
61397;SDS011;47267;48.130;-2.040;2023-08-24T13:16:02;5.10;;;2.97;;
61397;SDS011;47267;48.130;-2.040;2023-08-24T13:18:28;3.88;;;2.60;;
61397;SDS011;47267;48.130;-2.040;2023-08-24T13:20:53;4.82;;;2.80;;
61397;SDS011;47267;48.130;-2.040;2023-08-24T13:23:19;4.32;;;2.75;;
61397;SDS011;47267;48.130;-2.040;2023-08-24T13:25:45;4.82;;;2.70;;
61397;SDS011;47267;48.130;-2.040;2023-08-24T13:28:10;3.97;;;2.70;;
61397;SDS011;47267;48.130;-2.040;2023-08-24T13:30:36;4.40;;;2.65;;
61397;SDS011;47267;48.130;-2.040;2023-08-24T13:33:02;4.07;;;2.47;;
61397;SDS011;47267;48.130;-2.040;2023-08-24T13:35:28;3.83;;;2.42;;
61397;SDS011;47267;48.130;-2.040;2023-08-24T13:37:53;3.25;;;2.50;;
61397;SDS011;47267;48.130;-2.040;2023-08-24T13:40:19;6.88;;;2.63;;
61397;SDS011;47267;48.130;-2.040;2023-08-24T13:42:45;3.60;;;2.45;;
61397;SDS011;47267;48.130;-2.040;2023-08-24T13:45:10;3.70;;;2.60;;
61397;SDS011;47267;48.130;-2.040;2023-08-24T13:47:36;3.63;;;2.50;;
61397;SDS011;47267;48.130;-2.040;2023-08-24T13:50:03;6.00;;;2.78;;
61397;SDS011;47267;48.130;-2.040;2023-08-24T13:52:29;3.38;;;2.40;;
61397;SDS011;47267;48.130;-2.040;2023-08-24T13:54:55;3.47;;;2.33;;
61397;SDS011;47267;48.130;-2.040;2023-08-24T13:57:20;3.88;;;2.38;;
61397;SDS011;47267;48.130;-2.040;2023-08-24T13:59:46;4.72;;;2.70;;
61397;SDS011;47267;48.130;-2.040;2023-08-24T14:02:12;6.85;;;2.92;;
61397;SDS011;47267;48.130;-2.040;2023-08-24T14:04:38;3.60;;;2.25;;
61397;SDS011;47267;48.130;-2.040;2023-08-24T14:07:04;3.20;;;2.70;;
61397;SDS011;47267;48.130;-2.040;2023-08-24T14:09:30;4.70;;;2.65;;
61397;SDS011;47267;48.130;-2.040;2023-08-24T14:11:55;5.03;;;2.60;;
61397;SDS011;47267;48.130;-2.040;2023-08-24T14:14:21;3.35;;;2.63;;
61397;SDS011;47267;48.130;-2.040;2023-08-24T14:16:48;4.00;;;2.72;;
61397;SDS011;47267;48.130;-2.040;2023-08-24T14:19:19;7.00;;;2.80;;
61397;SDS011;47267;48.130;-2.040;2023-08-24T14:21:45;3.45;;;2.65;;
61397;SDS011;47267;48.130;-2.040;2023-08-24T14:24:11;5.35;;;3.00;;
61397;SDS011;47267;48.130;-2.040;2023-08-24T14:26:36;4.10;;;2.80;;
61397;SDS011;47267;48.130;-2.040;2023-08-24T14:29:04;4.95;;;2.90;;
61397;SDS011;47267;48.130;-2.040;2023-08-24T14:31:30;4.30;;;2.75;;
61397;SDS011;47267;48.130;-2.040;2023-08-24T14:33:56;4.38;;;2.60;;
61397;SDS011;47267;48.130;-2.040;2023-08-24T14:36:23;5.07;;;2.40;;
61397;SDS011;47267;48.130;-2.040;2023-08-24T14:38:49;5.43;;;2.90;;
61397;SDS011;47267;48.130;-2.040;2023-08-24T14:41:17;5.07;;;2.80;;
61397;SDS011;47267;48.130;-2.040;2023-08-24T14:43:42;6.28;;;2.70;;
61397;SDS011;47267;48.130;-2.040;2023-08-24T14:46:09;5.93;;;3.10;;
61397;SDS011;47267;48.130;-2.040;2023-08-24T14:48:34;5.65;;;2.92;;
61397;SDS011;47267;48.130;-2.040;2023-08-24T14:51:01;5.13;;;2.80;;